sensor_id;sensor_type;location;lat;lon;timestamp;temperature;humidity
22738;DHT22;11536;50.860;4.286;2023-02-01T00:01:29;8.20;99.90
22738;DHT22;11536;50.860;4.286;2023-02-01T00:03:54;8.20;99.90
22738;DHT22;11536;50.860;4.286;2023-02-01T00:06:20;8.20;99.90
22738;DHT22;11536;50.860;4.286;2023-02-01T00:08:45;8.30;99.90
22738;DHT22;11536;50.860;4.286;2023-02-01T00:11:12;8.20;99.90
22738;DHT22;11536;50.860;4.286;2023-02-01T00:13:39;8.30;99.90
22738;DHT22;11536;50.860;4.286;2023-02-01T00:16:12;8.30;99.90
22738;DHT22;11536;50.860;4.286;2023-02-01T00:18:39;8.30;99.90
22738;DHT22;11536;50.860;4.286;2023-02-01T00:21:05;8.30;99.90
22738;DHT22;11536;50.860;4.286;2023-02-01T00:23:35;8.30;99.90
22738;DHT22;11536;50.860;4.286;2023-02-01T00:26:05;8.30;99.90
22738;DHT22;11536;50.860;4.286;2023-02-01T00:28:32;8.30;99.90
22738;DHT22;11536;50.860;4.286;2023-02-01T00:31:02;8.30;99.90
22738;DHT22;11536;50.860;4.286;2023-02-01T00:33:29;8.20;99.90
22738;DHT22;11536;50.860;4.286;2023-02-01T00:36:01;8.20;99.90
22738;DHT22;11536;50.860;4.286;2023-02-01T00:38:28;8.20;99.90
22738;DHT22;11536;50.860;4.286;2023-02-01T00:41:01;8.20;99.90
22738;DHT22;11536;50.860;4.286;2023-02-01T00:43:27;8.20;99.90
22738;DHT22;11536;50.860;4.286;2023-02-01T00:45:52;8.20;99.90
22738;DHT22;11536;50.860;4.286;2023-02-01T00:48:18;8.20;99.90
22738;DHT22;11536;50.860;4.286;2023-02-01T00:50:44;8.20;99.90
22738;DHT22;11536;50.860;4.286;2023-02-01T00:53:10;8.20;99.90
22738;DHT22;11536;50.860;4.286;2023-02-01T00:55:36;8.20;99.90
22738;DHT22;11536;50.860;4.286;2023-02-01T00:58:02;8.20;99.90
22738;DHT22;11536;50.860;4.286;2023-02-01T01:00:28;8.20;99.90
22738;DHT22;11536;50.860;4.286;2023-02-01T01:02:54;8.10;99.90
22738;DHT22;11536;50.860;4.286;2023-02-01T01:05:20;8.10;99.90
22738;DHT22;11536;50.860;4.286;2023-02-01T01:07:45;8.10;99.90
22738;DHT22;11536;50.860;4.286;2023-02-01T01:10:11;8.10;99.90
22738;DHT22;11536;50.860;4.286;2023-02-01T01:12:37;8.10;99.90
22738;DHT22;11536;50.860;4.286;2023-02-01T01:15:03;8.10;99.90
22738;DHT22;11536;50.860;4.286;2023-02-01T01:17:31;8.00;99.90
22738;DHT22;11536;50.860;4.286;2023-02-01T01:19:56;8.00;99.90
22738;DHT22;11536;50.860;4.286;2023-02-01T01:22:22;8.10;99.90
22738;DHT22;11536;50.860;4.286;2023-02-01T01:24:47;8.00;99.90
22738;DHT22;11536;50.860;4.286;2023-02-01T01:27:13;8.00;99.90
22738;DHT22;11536;50.860;4.286;2023-02-01T01:29:39;8.00;99.90
22738;DHT22;11536;50.860;4.286;2023-02-01T01:32:04;8.00;99.90
22738;DHT22;11536;50.860;4.286;2023-02-01T01:34:30;8.00;99.90
22738;DHT22;11536;50.860;4.286;2023-02-01T01:36:56;8.00;99.90
22738;DHT22;11536;50.860;4.286;2023-02-01T01:39:21;7.90;99.90
22738;DHT22;11536;50.860;4.286;2023-02-01T01:41:47;7.90;99.90
22738;DHT22;11536;50.860;4.286;2023-02-01T01:47:16;7.90;99.90
22738;DHT22;11536;50.860;4.286;2023-02-01T01:49:42;7.90;99.90
22738;DHT22;11536;50.860;4.286;2023-02-01T01:52:08;7.90;99.90
22738;DHT22;11536;50.860;4.286;2023-02-01T01:54:42;7.90;99.90
22738;DHT22;11536;50.860;4.286;2023-02-01T01:57:20;7.90;99.90
22738;DHT22;11536;50.860;4.286;2023-02-01T01:59:53;7.90;99.90
22738;DHT22;11536;50.860;4.286;2023-02-01T02:02:21;7.80;99.90
22738;DHT22;11536;50.860;4.286;2023-02-01T02:04:47;7.80;99.90
22738;DHT22;11536;50.860;4.286;2023-02-01T02:07:26;7.90;99.90
22738;DHT22;11536;50.860;4.286;2023-02-01T02:09:52;7.80;99.90
22738;DHT22;11536;50.860;4.286;2023-02-01T02:12:18;7.80;99.90
22738;DHT22;11536;50.860;4.286;2023-02-01T02:14:44;7.80;99.90
22738;DHT22;11536;50.860;4.286;2023-02-01T02:17:36;7.70;99.90
22738;DHT22;11536;50.860;4.286;2023-02-01T02:43:07;7.70;99.90
22738;DHT22;11536;50.860;4.286;2023-02-01T02:46:22;7.70;99.90
22738;DHT22;11536;50.860;4.286;2023-02-01T02:49:19;7.70;99.90
22738;DHT22;11536;50.860;4.286;2023-02-01T02:51:56;7.70;99.90
22738;DHT22;11536;50.860;4.286;2023-02-01T02:54:46;7.70;99.90
22738;DHT22;11536;50.860;4.286;2023-02-01T03:00:07;7.70;99.90
22738;DHT22;11536;50.860;4.286;2023-02-01T03:02:52;7.60;99.90
22738;DHT22;11536;50.860;4.286;2023-02-01T03:05:40;7.60;99.90
22738;DHT22;11536;50.860;4.286;2023-02-01T03:08:13;7.60;99.90
22738;DHT22;11536;50.860;4.286;2023-02-01T03:13:35;7.60;99.90
22738;DHT22;11536;50.860;4.286;2023-02-01T03:16:24;7.60;99.90
22738;DHT22;11536;50.860;4.286;2023-02-01T03:21:59;7.50;99.90
22738;DHT22;11536;50.860;4.286;2023-02-01T03:24:42;7.50;99.90
22738;DHT22;11536;50.860;4.286;2023-02-01T03:28:07;7.50;99.90
22738;DHT22;11536;50.860;4.286;2023-02-01T03:30:23;7.50;99.90
22738;DHT22;11536;50.860;4.286;2023-02-01T03:32:54;7.40;99.90
22738;DHT22;11536;50.860;4.286;2023-02-01T03:38:30;7.40;99.90
22738;DHT22;11536;50.860;4.286;2023-02-01T03:41:15;7.40;99.90
22738;DHT22;11536;50.860;4.286;2023-02-01T03:44:15;7.40;99.90
22738;DHT22;11536;50.860;4.286;2023-02-01T03:47:16;7.40;99.90
22738;DHT22;11536;50.860;4.286;2023-02-01T03:49:54;7.40;99.90
22738;DHT22;11536;50.860;4.286;2023-02-01T03:52:42;7.40;99.90
22738;DHT22;11536;50.860;4.286;2023-02-01T03:55:09;7.40;99.90
22738;DHT22;11536;50.860;4.286;2023-02-01T03:57:41;7.30;99.90
22738;DHT22;11536;50.860;4.286;2023-02-01T04:00:20;7.30;99.90
22738;DHT22;11536;50.860;4.286;2023-02-01T04:02:47;7.30;99.90
22738;DHT22;11536;50.860;4.286;2023-02-01T04:05:13;7.30;99.90
22738;DHT22;11536;50.860;4.286;2023-02-01T04:07:38;7.30;99.90
22738;DHT22;11536;50.860;4.286;2023-02-01T04:10:04;7.30;99.90
22738;DHT22;11536;50.860;4.286;2023-02-01T04:12:30;7.30;99.90
22738;DHT22;11536;50.860;4.286;2023-02-01T04:14:56;7.30;99.90
22738;DHT22;11536;50.860;4.286;2023-02-01T04:17:21;7.20;99.90
22738;DHT22;11536;50.860;4.286;2023-02-01T04:19:47;7.20;99.90
22738;DHT22;11536;50.860;4.286;2023-02-01T04:22:12;7.30;99.90
22738;DHT22;11536;50.860;4.286;2023-02-01T04:24:38;7.20;99.90
22738;DHT22;11536;50.860;4.286;2023-02-01T04:27:04;7.20;99.90
22738;DHT22;11536;50.860;4.286;2023-02-01T04:29:29;7.20;99.90
22738;DHT22;11536;50.860;4.286;2023-02-01T04:31:55;7.20;99.90
22738;DHT22;11536;50.860;4.286;2023-02-01T04:34:20;7.10;99.90
22738;DHT22;11536;50.860;4.286;2023-02-01T04:36:48;7.10;99.90
22738;DHT22;11536;50.860;4.286;2023-02-01T04:39:13;7.20;99.90
22738;DHT22;11536;50.860;4.286;2023-02-01T04:41:39;7.10;99.90
22738;DHT22;11536;50.860;4.286;2023-02-01T04:44:04;7.10;99.90
22738;DHT22;11536;50.860;4.286;2023-02-01T04:46:30;7.00;99.90
22738;DHT22;11536;50.860;4.286;2023-02-01T04:48:56;7.00;99.90
22738;DHT22;11536;50.860;4.286;2023-02-01T04:51:21;7.00;99.90
22738;DHT22;11536;50.860;4.286;2023-02-01T04:53:47;7.00;99.90
22738;DHT22;11536;50.860;4.286;2023-02-01T04:56:13;6.90;99.90
22738;DHT22;11536;50.860;4.286;2023-02-01T04:58:39;6.90;99.90
22738;DHT22;11536;50.860;4.286;2023-02-01T05:01:06;6.80;99.90
22738;DHT22;11536;50.860;4.286;2023-02-01T05:03:32;6.90;99.90
22738;DHT22;11536;50.860;4.286;2023-02-01T05:05:58;6.80;99.90
22738;DHT22;11536;50.860;4.286;2023-02-01T05:08:24;6.90;99.90
22738;DHT22;11536;50.860;4.286;2023-02-01T05:10:51;6.80;99.90
22738;DHT22;11536;50.860;4.286;2023-02-01T05:13:17;6.80;99.90
22738;DHT22;11536;50.860;4.286;2023-02-01T05:16:01;6.80;99.90
22738;DHT22;11536;50.860;4.286;2023-02-01T05:18:27;6.80;99.90
22738;DHT22;11536;50.860;4.286;2023-02-01T05:20:52;6.80;99.90
22738;DHT22;11536;50.860;4.286;2023-02-01T05:23:18;6.80;99.90
22738;DHT22;11536;50.860;4.286;2023-02-01T05:25:43;6.80;99.90
22738;DHT22;11536;50.860;4.286;2023-02-01T05:28:09;6.80;99.90
22738;DHT22;11536;50.860;4.286;2023-02-01T05:30:35;6.80;99.90
22738;DHT22;11536;50.860;4.286;2023-02-01T05:33:01;6.70;99.90
22738;DHT22;11536;50.860;4.286;2023-02-01T05:35:27;6.70;99.90
22738;DHT22;11536;50.860;4.286;2023-02-01T05:37:52;6.70;99.90
22738;DHT22;11536;50.860;4.286;2023-02-01T05:40:18;6.70;99.90
22738;DHT22;11536;50.860;4.286;2023-02-01T05:42:44;6.70;99.90
22738;DHT22;11536;50.860;4.286;2023-02-01T05:45:10;6.70;99.90
22738;DHT22;11536;50.860;4.286;2023-02-01T05:47:35;6.70;99.90
22738;DHT22;11536;50.860;4.286;2023-02-01T05:50:01;6.60;99.90
22738;DHT22;11536;50.860;4.286;2023-02-01T05:52:28;6.60;99.90
22738;DHT22;11536;50.860;4.286;2023-02-01T05:54:53;6.60;99.90
22738;DHT22;11536;50.860;4.286;2023-02-01T05:57:19;6.60;99.90
22738;DHT22;11536;50.860;4.286;2023-02-01T05:59:44;6.60;99.90
22738;DHT22;11536;50.860;4.286;2023-02-01T06:02:11;6.60;99.90
22738;DHT22;11536;50.860;4.286;2023-02-01T06:04:37;6.50;99.90
22738;DHT22;11536;50.860;4.286;2023-02-01T06:07:04;6.50;99.90
22738;DHT22;11536;50.860;4.286;2023-02-01T06:09:31;6.50;99.90
22738;DHT22;11536;50.860;4.286;2023-02-01T06:11:56;6.50;99.90
22738;DHT22;11536;50.860;4.286;2023-02-01T06:14:23;6.40;99.90
22738;DHT22;11536;50.860;4.286;2023-02-01T06:16:49;6.50;99.90
22738;DHT22;11536;50.860;4.286;2023-02-01T06:19:15;6.40;99.90
22738;DHT22;11536;50.860;4.286;2023-02-01T06:21:40;6.40;99.90
22738;DHT22;11536;50.860;4.286;2023-02-01T06:24:06;6.50;99.90
22738;DHT22;11536;50.860;4.286;2023-02-01T06:26:32;6.50;99.90
22738;DHT22;11536;50.860;4.286;2023-02-01T06:28:58;6.40;99.90
22738;DHT22;11536;50.860;4.286;2023-02-01T06:31:24;6.40;99.90
22738;DHT22;11536;50.860;4.286;2023-02-01T06:33:51;6.40;99.90
22738;DHT22;11536;50.860;4.286;2023-02-01T06:36:17;6.40;99.90
22738;DHT22;11536;50.860;4.286;2023-02-01T06:38:44;6.40;99.90
22738;DHT22;11536;50.860;4.286;2023-02-01T06:41:09;6.40;99.90
22738;DHT22;11536;50.860;4.286;2023-02-01T06:43:36;6.40;99.90
22738;DHT22;11536;50.860;4.286;2023-02-01T06:46:05;6.40;99.90
22738;DHT22;11536;50.860;4.286;2023-02-01T06:48:31;6.40;99.90
22738;DHT22;11536;50.860;4.286;2023-02-01T06:50:57;6.40;99.90
22738;DHT22;11536;50.860;4.286;2023-02-01T06:53:23;6.50;99.90
22738;DHT22;11536;50.860;4.286;2023-02-01T06:55:59;6.40;99.90
22738;DHT22;11536;50.860;4.286;2023-02-01T06:58:33;6.50;99.90
22738;DHT22;11536;50.860;4.286;2023-02-01T07:01:07;6.50;99.90
22738;DHT22;11536;50.860;4.286;2023-02-01T07:03:33;6.40;99.90
22738;DHT22;11536;50.860;4.286;2023-02-01T07:05:59;6.40;99.90
22738;DHT22;11536;50.860;4.286;2023-02-01T07:08:26;6.40;99.90
22738;DHT22;11536;50.860;4.286;2023-02-01T07:10:52;6.40;99.90
22738;DHT22;11536;50.860;4.286;2023-02-01T07:13:17;6.40;99.90
22738;DHT22;11536;50.860;4.286;2023-02-01T07:15:43;6.40;99.90
22738;DHT22;11536;50.860;4.286;2023-02-01T07:18:08;6.40;99.90
22738;DHT22;11536;50.860;4.286;2023-02-01T07:20:34;6.40;99.90
22738;DHT22;11536;50.860;4.286;2023-02-01T07:23:00;6.40;99.90
22738;DHT22;11536;50.860;4.286;2023-02-01T07:25:25;6.40;99.90
22738;DHT22;11536;50.860;4.286;2023-02-01T07:27:51;6.40;99.90
22738;DHT22;11536;50.860;4.286;2023-02-01T07:30:17;6.40;99.90
22738;DHT22;11536;50.860;4.286;2023-02-01T07:32:43;6.40;99.90
22738;DHT22;11536;50.860;4.286;2023-02-01T07:35:08;6.40;99.90
22738;DHT22;11536;50.860;4.286;2023-02-01T07:37:34;6.50;99.90
22738;DHT22;11536;50.860;4.286;2023-02-01T07:40:00;6.50;99.90
22738;DHT22;11536;50.860;4.286;2023-02-01T07:42:25;6.50;99.90
22738;DHT22;11536;50.860;4.286;2023-02-01T07:44:51;6.40;99.90
22738;DHT22;11536;50.860;4.286;2023-02-01T07:47:16;6.50;99.90
22738;DHT22;11536;50.860;4.286;2023-02-01T07:49:42;6.50;99.90
22738;DHT22;11536;50.860;4.286;2023-02-01T07:52:07;6.50;99.90
22738;DHT22;11536;50.860;4.286;2023-02-01T07:54:33;6.40;99.90
22738;DHT22;11536;50.860;4.286;2023-02-01T07:56:59;6.50;99.90
22738;DHT22;11536;50.860;4.286;2023-02-01T07:59:24;6.50;99.90
22738;DHT22;11536;50.860;4.286;2023-02-01T08:01:50;6.50;99.90
22738;DHT22;11536;50.860;4.286;2023-02-01T08:04:15;6.50;99.90
22738;DHT22;11536;50.860;4.286;2023-02-01T08:06:41;6.50;99.90
22738;DHT22;11536;50.860;4.286;2023-02-01T08:09:07;6.50;99.90
22738;DHT22;11536;50.860;4.286;2023-02-01T08:11:34;6.50;99.90
22738;DHT22;11536;50.860;4.286;2023-02-01T08:14:03;6.50;99.90
22738;DHT22;11536;50.860;4.286;2023-02-01T08:16:29;6.50;99.90
22738;DHT22;11536;50.860;4.286;2023-02-01T08:18:54;6.50;99.90
22738;DHT22;11536;50.860;4.286;2023-02-01T08:21:26;6.50;99.90
22738;DHT22;11536;50.860;4.286;2023-02-01T08:23:52;6.60;99.90
22738;DHT22;11536;50.860;4.286;2023-02-01T08:26:20;6.50;99.90
22738;DHT22;11536;50.860;4.286;2023-02-01T08:28:50;6.60;99.90
22738;DHT22;11536;50.860;4.286;2023-02-01T08:31:17;6.60;99.90
22738;DHT22;11536;50.860;4.286;2023-02-01T08:33:44;6.60;99.90
22738;DHT22;11536;50.860;4.286;2023-02-01T08:36:12;6.60;99.90
22738;DHT22;11536;50.860;4.286;2023-02-01T08:38:39;6.60;99.90
22738;DHT22;11536;50.860;4.286;2023-02-01T08:41:13;6.60;99.90
22738;DHT22;11536;50.860;4.286;2023-02-01T08:43:40;6.60;99.90
22738;DHT22;11536;50.860;4.286;2023-02-01T08:46:06;6.70;99.90
22738;DHT22;11536;50.860;4.286;2023-02-01T08:48:32;6.70;99.90
22738;DHT22;11536;50.860;4.286;2023-02-01T08:51:04;6.70;99.90
22738;DHT22;11536;50.860;4.286;2023-02-01T08:53:30;6.80;99.90
22738;DHT22;11536;50.860;4.286;2023-02-01T08:55:55;6.80;99.90
22738;DHT22;11536;50.860;4.286;2023-02-01T08:58:21;6.80;99.90
22738;DHT22;11536;50.860;4.286;2023-02-01T09:00:47;6.90;99.90
22738;DHT22;11536;50.860;4.286;2023-02-01T09:03:13;6.90;99.90
22738;DHT22;11536;50.860;4.286;2023-02-01T09:05:39;6.90;99.90
22738;DHT22;11536;50.860;4.286;2023-02-01T09:08:05;6.90;99.90
22738;DHT22;11536;50.860;4.286;2023-02-01T09:10:31;7.00;99.90
22738;DHT22;11536;50.860;4.286;2023-02-01T09:12:57;7.00;99.90
22738;DHT22;11536;50.860;4.286;2023-02-01T09:15:22;7.00;99.90
22738;DHT22;11536;50.860;4.286;2023-02-01T09:17:48;7.10;99.90
22738;DHT22;11536;50.860;4.286;2023-02-01T09:20:14;7.10;99.90
22738;DHT22;11536;50.860;4.286;2023-02-01T09:22:40;7.20;99.90
22738;DHT22;11536;50.860;4.286;2023-02-01T09:25:07;7.20;99.90
22738;DHT22;11536;50.860;4.286;2023-02-01T09:27:33;7.20;99.90
22738;DHT22;11536;50.860;4.286;2023-02-01T09:29:58;7.30;99.90
22738;DHT22;11536;50.860;4.286;2023-02-01T09:32:24;7.30;99.90
22738;DHT22;11536;50.860;4.286;2023-02-01T09:34:51;7.30;99.90
22738;DHT22;11536;50.860;4.286;2023-02-01T09:37:18;7.40;99.90
22738;DHT22;11536;50.860;4.286;2023-02-01T09:39:44;7.40;99.90
22738;DHT22;11536;50.860;4.286;2023-02-01T09:42:21;7.50;99.90
22738;DHT22;11536;50.860;4.286;2023-02-01T09:47:49;7.50;99.90
22738;DHT22;11536;50.860;4.286;2023-02-01T09:50:22;7.50;99.90
22738;DHT22;11536;50.860;4.286;2023-02-01T09:53:11;7.60;99.90
22738;DHT22;11536;50.860;4.286;2023-02-01T09:55:45;7.60;99.90
22738;DHT22;11536;50.860;4.286;2023-02-01T10:00:42;7.70;99.90
22738;DHT22;11536;50.860;4.286;2023-02-01T10:03:11;7.70;99.90
22738;DHT22;11536;50.860;4.286;2023-02-01T10:08:55;7.80;99.90
22738;DHT22;11536;50.860;4.286;2023-02-01T10:11:35;7.80;99.90
22738;DHT22;11536;50.860;4.286;2023-02-01T10:17:18;7.90;99.90
22738;DHT22;11536;50.860;4.286;2023-02-01T10:19:55;8.00;99.90
22738;DHT22;11536;50.860;4.286;2023-02-01T10:25:21;8.10;99.90
22738;DHT22;11536;50.860;4.286;2023-02-01T10:27:50;8.20;99.90
22738;DHT22;11536;50.860;4.286;2023-02-01T10:30:20;8.20;99.90
22738;DHT22;11536;50.860;4.286;2023-02-01T10:32:55;8.20;99.90
22738;DHT22;11536;50.860;4.286;2023-02-01T10:35:28;8.30;99.90
22738;DHT22;11536;50.860;4.286;2023-02-01T10:37:58;8.30;99.90
22738;DHT22;11536;50.860;4.286;2023-02-01T10:40:26;8.30;99.90
22738;DHT22;11536;50.860;4.286;2023-02-01T10:42:54;8.40;99.90
22738;DHT22;11536;50.860;4.286;2023-02-01T10:45:22;8.40;99.90
22738;DHT22;11536;50.860;4.286;2023-02-01T10:47:50;8.40;99.90
22738;DHT22;11536;50.860;4.286;2023-02-01T10:53:22;8.50;99.90
22738;DHT22;11536;50.860;4.286;2023-02-01T10:55:51;8.60;99.90
22738;DHT22;11536;50.860;4.286;2023-02-01T10:58:28;8.70;99.90
22738;DHT22;11536;50.860;4.286;2023-02-01T11:01:02;8.70;99.90
22738;DHT22;11536;50.860;4.286;2023-02-01T11:06:00;8.80;99.90
22738;DHT22;11536;50.860;4.286;2023-02-01T11:08:26;8.80;99.90
22738;DHT22;11536;50.860;4.286;2023-02-01T11:10:59;8.80;99.90
22738;DHT22;11536;50.860;4.286;2023-02-01T11:13:27;8.90;99.90
22738;DHT22;11536;50.860;4.286;2023-02-01T11:15:57;8.90;99.90
22738;DHT22;11536;50.860;4.286;2023-02-01T11:18:29;9.00;99.90
22738;DHT22;11536;50.860;4.286;2023-02-01T11:20:55;9.00;99.90
22738;DHT22;11536;50.860;4.286;2023-02-01T11:23:23;9.00;99.90
22738;DHT22;11536;50.860;4.286;2023-02-01T11:25:55;9.00;99.90
22738;DHT22;11536;50.860;4.286;2023-02-01T11:28:25;9.10;99.90
22738;DHT22;11536;50.860;4.286;2023-02-01T11:30:53;9.20;99.90
22738;DHT22;11536;50.860;4.286;2023-02-01T11:33:27;9.30;99.90
22738;DHT22;11536;50.860;4.286;2023-02-01T11:35:56;9.30;99.90
22738;DHT22;11536;50.860;4.286;2023-02-01T11:38:29;9.30;99.90
22738;DHT22;11536;50.860;4.286;2023-02-01T11:41:00;9.40;99.90
22738;DHT22;11536;50.860;4.286;2023-02-01T11:43:36;9.40;99.90
22738;DHT22;11536;50.860;4.286;2023-02-01T11:46:03;9.40;99.90
22738;DHT22;11536;50.860;4.286;2023-02-01T11:48:31;9.40;99.90
22738;DHT22;11536;50.860;4.286;2023-02-01T11:56:25;9.40;99.90
22738;DHT22;11536;50.860;4.286;2023-02-01T12:02:03;9.60;99.90
22738;DHT22;11536;50.860;4.286;2023-02-01T12:04:50;9.70;99.90
22738;DHT22;11536;50.860;4.286;2023-02-01T12:08:25;9.70;99.90
22738;DHT22;11536;50.860;4.286;2023-02-01T12:24:51;10.20;99.90
22738;DHT22;11536;50.860;4.286;2023-02-01T12:29:55;10.30;99.90
22738;DHT22;11536;50.860;4.286;2023-02-01T12:32:44;10.30;99.90
22738;DHT22;11536;50.860;4.286;2023-02-01T12:35:23;10.40;99.90
22738;DHT22;11536;50.860;4.286;2023-02-01T12:38:10;10.40;99.90
22738;DHT22;11536;50.860;4.286;2023-02-01T12:43:13;10.50;99.90
22738;DHT22;11536;50.860;4.286;2023-02-01T12:45:58;10.60;99.90
22738;DHT22;11536;50.860;4.286;2023-02-01T12:48:40;10.80;99.90
22738;DHT22;11536;50.860;4.286;2023-02-01T12:51:13;10.80;99.90
22738;DHT22;11536;50.860;4.286;2023-02-01T12:53:44;10.90;99.90
22738;DHT22;11536;50.860;4.286;2023-02-01T12:56:38;10.90;99.90
22738;DHT22;11536;50.860;4.286;2023-02-01T12:59:03;11.00;99.90
22738;DHT22;11536;50.860;4.286;2023-02-01T13:01:39;11.00;99.90
22738;DHT22;11536;50.860;4.286;2023-02-01T13:04:10;11.10;99.90
22738;DHT22;11536;50.860;4.286;2023-02-01T13:06:51;11.00;99.90
22738;DHT22;11536;50.860;4.286;2023-02-01T13:12:33;11.00;99.90
22738;DHT22;11536;50.860;4.286;2023-02-01T13:15:16;11.10;99.90
22738;DHT22;11536;50.860;4.286;2023-02-01T13:17:43;11.10;99.90
22738;DHT22;11536;50.860;4.286;2023-02-01T13:23:40;11.10;99.90
22738;DHT22;11536;50.860;4.286;2023-02-01T13:25:49;11.10;99.90
22738;DHT22;11536;50.860;4.286;2023-02-01T13:36:40;11.20;99.90
22738;DHT22;11536;50.860;4.286;2023-02-01T13:42:05;11.40;99.90
22738;DHT22;11536;50.860;4.286;2023-02-01T13:47:39;11.40;99.90
22738;DHT22;11536;50.860;4.286;2023-02-01T13:55:54;11.70;99.90
22738;DHT22;11536;50.860;4.286;2023-02-01T14:00:49;11.80;99.90
22738;DHT22;11536;50.860;4.286;2023-02-01T14:03:21;11.80;99.90
22738;DHT22;11536;50.860;4.286;2023-02-01T14:08:44;11.80;99.90
22738;DHT22;11536;50.860;4.286;2023-02-01T14:11:36;11.80;99.90
22738;DHT22;11536;50.860;4.286;2023-02-01T14:19:24;11.90;99.90
22738;DHT22;11536;50.860;4.286;2023-02-01T14:21:58;11.90;99.90
22738;DHT22;11536;50.860;4.286;2023-02-01T14:24:33;11.80;99.90
22738;DHT22;11536;50.860;4.286;2023-02-01T14:27:15;11.70;99.90
22738;DHT22;11536;50.860;4.286;2023-02-01T14:29:45;11.60;99.90
22738;DHT22;11536;50.860;4.286;2023-02-01T14:32:22;11.50;99.90
22738;DHT22;11536;50.860;4.286;2023-02-01T14:34:53;11.50;99.90
22738;DHT22;11536;50.860;4.286;2023-02-01T14:39:50;11.40;99.90
22738;DHT22;11536;50.860;4.286;2023-02-01T14:47:51;11.20;99.90
22738;DHT22;11536;50.860;4.286;2023-02-01T14:58:37;11.10;99.90
22738;DHT22;11536;50.860;4.286;2023-02-01T15:03:57;11.10;99.90
22738;DHT22;11536;50.860;4.286;2023-02-01T15:06:49;11.00;99.90
22738;DHT22;11536;50.860;4.286;2023-02-01T15:09:36;11.00;99.90
22738;DHT22;11536;50.860;4.286;2023-02-01T15:14:42;10.90;99.90
22738;DHT22;11536;50.860;4.286;2023-02-01T15:17:37;10.90;99.90
22738;DHT22;11536;50.860;4.286;2023-02-01T15:20:27;10.80;99.90
22738;DHT22;11536;50.860;4.286;2023-02-01T15:22:59;10.80;99.90
22738;DHT22;11536;50.860;4.286;2023-02-01T15:25:32;10.70;99.90
22738;DHT22;11536;50.860;4.286;2023-02-01T15:27:58;10.70;99.90
22738;DHT22;11536;50.860;4.286;2023-02-01T15:30:27;10.60;99.90
22738;DHT22;11536;50.860;4.286;2023-02-01T15:35:46;10.60;99.90
22738;DHT22;11536;50.860;4.286;2023-02-01T15:41:07;10.50;99.90
22738;DHT22;11536;50.860;4.286;2023-02-01T15:43:43;10.50;99.90
22738;DHT22;11536;50.860;4.286;2023-02-01T15:46:15;10.50;99.90
22738;DHT22;11536;50.860;4.286;2023-02-01T15:48:47;10.50;99.90
22738;DHT22;11536;50.860;4.286;2023-02-01T15:51:20;10.50;99.90
22738;DHT22;11536;50.860;4.286;2023-02-01T15:53:54;10.50;99.90
22738;DHT22;11536;50.860;4.286;2023-02-01T15:56:24;10.50;99.90
22738;DHT22;11536;50.860;4.286;2023-02-01T15:58:53;10.40;99.90
22738;DHT22;11536;50.860;4.286;2023-02-01T16:01:19;10.40;99.90
22738;DHT22;11536;50.860;4.286;2023-02-01T16:03:46;10.40;99.90
22738;DHT22;11536;50.860;4.286;2023-02-01T16:09:10;10.30;99.90
22738;DHT22;11536;50.860;4.286;2023-02-01T16:11:52;10.40;99.90
22738;DHT22;11536;50.860;4.286;2023-02-01T16:14:20;10.40;99.90
22738;DHT22;11536;50.860;4.286;2023-02-01T16:16:46;10.40;99.90
22738;DHT22;11536;50.860;4.286;2023-02-01T16:19:11;10.40;99.90
22738;DHT22;11536;50.860;4.286;2023-02-01T16:21:37;10.40;99.90
22738;DHT22;11536;50.860;4.286;2023-02-01T16:24:03;10.40;99.90
22738;DHT22;11536;50.860;4.286;2023-02-01T16:26:33;10.30;99.90
22738;DHT22;11536;50.860;4.286;2023-02-01T16:28:59;10.30;99.90
22738;DHT22;11536;50.860;4.286;2023-02-01T16:31:30;10.30;99.90
22738;DHT22;11536;50.860;4.286;2023-02-01T16:33:57;10.30;99.90
22738;DHT22;11536;50.860;4.286;2023-02-01T16:36:24;10.30;99.90
22738;DHT22;11536;50.860;4.286;2023-02-01T16:38:50;10.20;99.90
22738;DHT22;11536;50.860;4.286;2023-02-01T16:41:21;10.20;99.90
22738;DHT22;11536;50.860;4.286;2023-02-01T16:43:53;10.20;99.90
22738;DHT22;11536;50.860;4.286;2023-02-01T16:46:21;10.20;99.90
22738;DHT22;11536;50.860;4.286;2023-02-01T16:48:58;10.20;99.90
22738;DHT22;11536;50.860;4.286;2023-02-01T16:51:27;10.20;99.90
22738;DHT22;11536;50.860;4.286;2023-02-01T16:53:53;10.10;99.90
22738;DHT22;11536;50.860;4.286;2023-02-01T16:56:30;10.10;99.90
22738;DHT22;11536;50.860;4.286;2023-02-01T16:58:57;10.10;99.90
22738;DHT22;11536;50.860;4.286;2023-02-01T17:01:23;10.10;99.90
22738;DHT22;11536;50.860;4.286;2023-02-01T17:03:49;10.10;99.90
22738;DHT22;11536;50.860;4.286;2023-02-01T17:06:18;10.10;99.90
22738;DHT22;11536;50.860;4.286;2023-02-01T17:08:55;10.10;99.90
22738;DHT22;11536;50.860;4.286;2023-02-01T17:11:23;10.00;99.90
22738;DHT22;11536;50.860;4.286;2023-02-01T17:13:49;10.00;99.90
22738;DHT22;11536;50.860;4.286;2023-02-01T17:18:44;10.10;99.90
22738;DHT22;11536;50.860;4.286;2023-02-01T17:21:12;10.00;99.90
22738;DHT22;11536;50.860;4.286;2023-02-01T17:23:37;10.00;99.90
22738;DHT22;11536;50.860;4.286;2023-02-01T17:26:03;10.00;99.90
22738;DHT22;11536;50.860;4.286;2023-02-01T17:28:29;10.00;99.90
22738;DHT22;11536;50.860;4.286;2023-02-01T17:30:55;10.00;99.90
22738;DHT22;11536;50.860;4.286;2023-02-01T17:33:25;10.00;99.90
22738;DHT22;11536;50.860;4.286;2023-02-01T17:35:53;10.00;99.90
22738;DHT22;11536;50.860;4.286;2023-02-01T17:38:20;9.90;99.90
22738;DHT22;11536;50.860;4.286;2023-02-01T17:40:46;9.90;99.90
22738;DHT22;11536;50.860;4.286;2023-02-01T17:43:13;10.00;99.90
22738;DHT22;11536;50.860;4.286;2023-02-01T17:45:44;10.00;99.90
22738;DHT22;11536;50.860;4.286;2023-02-01T17:48:14;9.90;99.90
22738;DHT22;11536;50.860;4.286;2023-02-01T17:50:40;9.90;99.90
22738;DHT22;11536;50.860;4.286;2023-02-01T17:53:06;9.90;99.90
22738;DHT22;11536;50.860;4.286;2023-02-01T17:55:35;9.90;99.90
22738;DHT22;11536;50.860;4.286;2023-02-01T17:58:02;9.90;99.90
22738;DHT22;11536;50.860;4.286;2023-02-01T18:00:28;9.90;99.90
22738;DHT22;11536;50.860;4.286;2023-02-01T18:02:53;9.90;99.90
22738;DHT22;11536;50.860;4.286;2023-02-01T18:05:26;9.90;99.90
22738;DHT22;11536;50.860;4.286;2023-02-01T18:07:52;9.90;99.90
22738;DHT22;11536;50.860;4.286;2023-02-01T18:10:18;9.90;99.90
22738;DHT22;11536;50.860;4.286;2023-02-01T18:12:44;9.90;99.90
22738;DHT22;11536;50.860;4.286;2023-02-01T18:15:22;9.90;99.90
22738;DHT22;11536;50.860;4.286;2023-02-01T18:17:48;9.80;99.90
22738;DHT22;11536;50.860;4.286;2023-02-01T18:20:16;9.90;99.90
22738;DHT22;11536;50.860;4.286;2023-02-01T18:22:43;9.80;99.90
22738;DHT22;11536;50.860;4.286;2023-02-01T18:25:25;9.80;99.90
22738;DHT22;11536;50.860;4.286;2023-02-01T18:27:52;9.90;99.90
22738;DHT22;11536;50.860;4.286;2023-02-01T18:30:20;9.80;99.90
22738;DHT22;11536;50.860;4.286;2023-02-01T18:32:46;9.80;99.90
22738;DHT22;11536;50.860;4.286;2023-02-01T18:35:21;9.80;99.90